createdAt,value
2018-01-15T00:02:21.111Z,102034
2018-01-15T00:04:58.212Z,102045
2018-01-15T00:07:26.551Z,102032
2018-01-15T00:09:54.626Z,102036
2018-01-15T00:12:22.700Z,102037
2018-01-15T00:14:51.068Z,102025
2018-01-15T00:17:19.147Z,102016
2018-01-15T00:19:47.216Z,102018
2018-01-15T00:22:15.281Z,102021
2018-01-15T00:24:43.358Z,102033
2018-01-15T00:27:11.431Z,102023
2018-01-15T00:29:39.515Z,102014
2018-01-15T00:32:07.580Z,102024
2018-01-15T00:34:35.652Z,102017
2018-01-15T00:37:03.722Z,102012
2018-01-15T00:39:31.790Z,102008
2018-01-15T00:41:59.854Z,102011
2018-01-15T00:44:27.918Z,102011
2018-01-15T00:46:55.992Z,102011
2018-01-15T00:49:24.082Z,102012
2018-01-15T00:51:52.149Z,102009
2018-01-15T00:54:20.214Z,102010
2018-01-15T00:56:48.291Z,102005
2018-01-15T00:59:16.371Z,102001
2018-01-15T01:01:44.442Z,101996
2018-01-15T01:04:12.515Z,101983
2018-01-15T01:06:40.599Z,101984
2018-01-15T01:09:08.674Z,101973
2018-01-15T01:11:36.732Z,101977
2018-01-15T01:14:04.802Z,101979
2018-01-15T01:16:32.868Z,101971
2018-01-15T01:19:00.943Z,101975
2018-01-15T01:21:29.019Z,101963
2018-01-15T01:23:57.085Z,101971
2018-01-15T01:26:25.153Z,101958
2018-01-15T01:28:53.226Z,101952
2018-01-15T01:31:21.303Z,101947
2018-01-15T01:33:49.370Z,101933
2018-01-15T01:36:17.457Z,101954
2018-01-15T01:38:46.310Z,101936
2018-01-15T01:41:14.391Z,101928
2018-01-15T01:43:42.458Z,101934
2018-01-15T01:46:10.535Z,101917
2018-01-15T01:48:38.605Z,101919
2018-01-15T01:51:06.680Z,101911
2018-01-15T01:53:34.754Z,101907
2018-01-15T01:56:02.825Z,101904
2018-01-15T01:58:30.887Z,101904
2018-01-15T02:00:58.949Z,101901
2018-01-15T02:03:27.025Z,101893
2018-01-15T02:05:55.089Z,101872
2018-01-15T02:08:23.155Z,101879
2018-01-15T02:10:51.226Z,101876
2018-01-15T02:13:19.299Z,101870
2018-01-15T02:15:47.366Z,101854
2018-01-15T02:18:15.443Z,101864
2018-01-15T02:20:43.615Z,101863
2018-01-15T02:23:11.691Z,101862
2018-01-15T02:25:39.768Z,101862
2018-01-15T02:28:07.826Z,101846
2018-01-15T02:30:35.902Z,101843
2018-01-15T02:33:04.011Z,101831
2018-01-15T02:35:32.851Z,101831
2018-01-15T02:38:00.922Z,101831
2018-01-15T02:40:28.999Z,101815
2018-01-15T02:42:57.062Z,101827
2018-01-15T02:45:25.162Z,101825
2018-01-15T02:47:53.234Z,101824
2018-01-15T02:50:21.303Z,101820
2018-01-15T02:52:50.234Z,101821
2018-01-15T02:55:18.306Z,101810
2018-01-15T02:57:46.376Z,101801
2018-01-15T03:00:14.450Z,101804
2018-01-15T03:02:42.516Z,101802
2018-01-15T03:05:10.578Z,101799
2018-01-15T03:07:38.659Z,101789
2018-01-15T03:10:06.741Z,101779
2018-01-15T03:12:34.805Z,101781
2018-01-15T03:15:02.875Z,101780
2018-01-15T03:17:30.950Z,101777
2018-01-15T03:19:59.018Z,101787
2018-01-15T03:22:27.095Z,101781
2018-01-15T03:24:55.156Z,101773
2018-01-15T03:27:23.218Z,101761
2018-01-15T03:29:51.593Z,101760
2018-01-15T03:32:19.668Z,101756
2018-01-15T03:34:47.743Z,101739
2018-01-15T03:37:15.803Z,101743
2018-01-15T03:39:43.875Z,101737
2018-01-15T03:42:11.947Z,101731
2018-01-15T03:44:40.026Z,101740
2018-01-15T03:47:08.094Z,101730
2018-01-15T03:49:36.174Z,101738
2018-01-15T03:52:04.246Z,101739
2018-01-15T03:54:32.319Z,101720
2018-01-15T03:57:00.391Z,101724
2018-01-15T03:59:28.470Z,101717
2018-01-15T04:01:56.599Z,101710
2018-01-15T04:04:24.666Z,101717
2018-01-15T04:06:52.739Z,101703
2018-01-15T04:09:20.807Z,101700
2018-01-15T04:11:48.875Z,101704
2018-01-15T04:14:17.716Z,101696
2018-01-15T04:16:45.782Z,101697
2018-01-15T04:19:13.871Z,101688
2018-01-15T04:21:41.935Z,101689
2018-01-15T04:24:10.037Z,101698
2018-01-15T04:26:38.876Z,101690
2018-01-15T04:29:06.945Z,101683
2018-01-15T04:31:35.024Z,101677
2018-01-15T04:34:03.078Z,101669
2018-01-15T04:36:31.146Z,101678
2018-01-15T04:38:59.211Z,101669
2018-01-15T04:41:27.282Z,101660
2018-01-15T04:43:55.353Z,101652
2018-01-15T04:46:23.427Z,101642
2018-01-15T04:48:51.495Z,101657
2018-01-15T04:51:19.562Z,101653
2018-01-15T04:53:47.630Z,101642
2018-01-15T04:56:15.710Z,101629
2018-01-15T04:58:43.774Z,101640
2018-01-15T05:01:11.850Z,101630
2018-01-15T05:03:39.922Z,101630
2018-01-15T05:06:07.990Z,101625
2018-01-15T05:08:36.054Z,101631
2018-01-15T05:11:04.131Z,101609
2018-01-15T05:13:32.194Z,101621
2018-01-15T05:16:00.263Z,101618
2018-01-15T05:18:28.339Z,101607
2018-01-15T05:20:56.410Z,101601
2018-01-15T05:23:24.482Z,101597
2018-01-15T05:25:52.553Z,101603
2018-01-15T05:28:20.622Z,101606
2018-01-15T05:30:48.694Z,101604
2018-01-15T05:33:16.758Z,101594
2018-01-15T05:35:44.831Z,101590
2018-01-15T05:38:12.910Z,101577
2018-01-15T05:40:40.983Z,101578
2018-01-15T05:43:09.053Z,101575
2018-01-15T05:45:37.157Z,101574
2018-01-15T05:48:05.242Z,101573
2018-01-15T05:50:33.315Z,101577
2018-01-15T05:53:02.150Z,101570
2018-01-15T05:55:30.223Z,101566
2018-01-15T05:57:58.297Z,101576
2018-01-15T06:00:26.363Z,101570
2018-01-15T06:02:54.426Z,101568
2018-01-15T06:05:22.496Z,101561
2018-01-15T06:07:50.575Z,101564
2018-01-15T06:10:18.642Z,101556
2018-01-15T06:12:46.706Z,101558
2018-01-15T06:15:14.776Z,101559
2018-01-15T06:17:42.843Z,101562
2018-01-15T06:20:10.918Z,101550
2018-01-15T06:22:38.983Z,101556
2018-01-15T06:25:07.055Z,101541
2018-01-15T06:27:35.119Z,101544
2018-01-15T06:30:03.188Z,101543
2018-01-15T06:32:31.253Z,101548
2018-01-15T06:34:59.333Z,101541
2018-01-15T06:37:27.389Z,101531
2018-01-15T06:39:55.459Z,101535
2018-01-15T06:42:23.558Z,101527
2018-01-15T06:44:51.635Z,101534
2018-01-15T06:47:19.706Z,101526
2018-01-15T06:49:47.779Z,101524
2018-01-15T06:52:15.851Z,101522
2018-01-15T06:54:43.927Z,101525
2018-01-15T06:57:11.999Z,101524
2018-01-15T06:59:40.079Z,101522
2018-01-15T07:02:08.155Z,101518
2018-01-15T07:04:36.227Z,101515
2018-01-15T07:07:04.318Z,101511
2018-01-15T07:09:33.161Z,101513
2018-01-15T07:12:01.242Z,101509
2018-01-15T07:14:29.354Z,101502
2018-01-15T07:16:58.208Z,101514
2018-01-15T07:19:26.274Z,101503
2018-01-15T07:21:54.354Z,101510
2018-01-15T07:24:22.434Z,101501
2018-01-15T07:26:50.510Z,101496
2018-01-15T07:29:28.478Z,101493
2018-01-15T07:31:56.550Z,101487
2018-01-15T07:34:24.857Z,101484
2018-01-15T07:36:53.792Z,101470
2018-01-15T07:39:21.879Z,101475
2018-01-15T07:41:50.011Z,101467
2018-01-15T07:44:19.894Z,101465
2018-01-15T07:46:47.996Z,101463
2018-01-15T07:49:20.568Z,101466
2018-01-15T07:51:48.982Z,101463
2018-01-15T07:54:17.071Z,101462
2018-01-15T07:56:45.150Z,101464
2018-01-15T07:59:13.222Z,101459
2018-01-15T08:01:41.306Z,101458
2018-01-15T08:04:09.622Z,101442
2018-01-15T08:06:37.702Z,101454
2018-01-15T08:09:05.782Z,101443
2018-01-15T08:11:33.862Z,101435
2018-01-15T08:14:01.938Z,101433
2018-01-15T08:16:30.003Z,101425
2018-01-15T08:18:58.083Z,101414
2018-01-15T08:21:26.923Z,101421
2018-01-15T08:23:55.768Z,101411
2018-01-15T08:26:23.834Z,101412
2018-01-15T08:28:51.945Z,101419
2018-01-15T08:31:20.003Z,101425
2018-01-15T08:33:48.089Z,101404
2018-01-15T08:36:16.925Z,101406
2018-01-15T08:38:44.999Z,101403
2018-01-15T08:41:13.076Z,101400
2018-01-15T08:43:41.151Z,101387
2018-01-15T08:46:09.217Z,101372
2018-01-15T08:48:37.302Z,101390
2018-01-15T08:51:05.376Z,101384
2018-01-15T08:53:33.446Z,101382
2018-01-15T08:56:01.515Z,101378
2018-01-15T08:58:29.595Z,101384
2018-01-15T09:00:57.697Z,101379
2018-01-15T09:03:25.739Z,101374
2018-01-15T09:05:53.814Z,101361
2018-01-15T09:08:21.882Z,101362
2018-01-15T09:10:49.962Z,101360
2018-01-15T09:13:18.790Z,101358
2018-01-15T09:15:46.858Z,101362
2018-01-15T09:18:14.934Z,101360
2018-01-15T09:20:43.106Z,101344
2018-01-15T09:23:11.175Z,101330
2018-01-15T09:25:39.247Z,101320
2018-01-15T09:28:07.327Z,101325
2018-01-15T09:30:35.394Z,101313
2018-01-15T09:33:03.462Z,101325
2018-01-15T09:35:31.538Z,101316
2018-01-15T09:37:59.607Z,101324
2018-01-15T09:40:27.678Z,101330
2018-01-15T09:42:55.764Z,101314
2018-01-15T09:45:23.825Z,101319
2018-01-15T09:47:51.903Z,101318
2018-01-15T09:50:19.974Z,101306
2018-01-15T09:52:48.046Z,101307
2018-01-15T09:55:16.114Z,101295
2018-01-15T09:57:44.191Z,101279
2018-01-15T10:00:12.263Z,101278
2018-01-15T10:02:40.370Z,101274
2018-01-15T10:05:09.301Z,101262
2018-01-15T10:07:37.367Z,101272
2018-01-15T10:10:05.437Z,101266
2018-01-15T10:12:33.529Z,101258
2018-01-15T10:15:01.587Z,101249
2018-01-15T10:17:29.661Z,101243
2018-01-15T10:19:57.733Z,101244
2018-01-15T10:22:25.806Z,101220
2018-01-15T10:24:53.892Z,101235
2018-01-15T10:27:21.954Z,101217
2018-01-15T10:29:50.934Z,101217
2018-01-15T10:32:19.012Z,101213
2018-01-15T10:34:47.086Z,101211
2018-01-15T10:37:15.171Z,101200
2018-01-15T10:39:43.236Z,101194
2018-01-15T10:42:11.296Z,101203
2018-01-15T10:44:39.366Z,101184
2018-01-15T10:47:07.426Z,101180
2018-01-15T10:49:35.506Z,101172
2018-01-15T10:52:03.562Z,101171
2018-01-15T10:54:31.641Z,101181
2018-01-15T10:57:00.494Z,101154
2018-01-15T10:59:28.562Z,101138
2018-01-15T11:01:57.400Z,101134
2018-01-15T11:04:25.475Z,101130
2018-01-15T11:06:53.537Z,101126
2018-01-15T11:09:21.678Z,101107
2018-01-15T11:11:49.747Z,101094
2018-01-15T11:14:17.805Z,101076
2018-01-15T11:16:45.866Z,101072
2018-01-15T11:19:14.729Z,101075
2018-01-15T11:21:42.786Z,101088
2018-01-15T11:24:10.846Z,101067
2018-01-15T11:26:38.917Z,101069
2018-01-15T11:29:07.886Z,101059
2018-01-15T11:31:35.974Z,101044
2018-01-15T11:34:04.038Z,101041
2018-01-15T11:36:32.115Z,101047
2018-01-15T11:39:00.203Z,101033
2018-01-15T11:41:28.279Z,101018
2018-01-15T11:43:56.349Z,101018
2018-01-15T11:46:24.422Z,101004
2018-01-15T11:48:52.514Z,100998
2018-01-15T11:51:21.354Z,101001
2018-01-15T11:53:49.431Z,100979
2018-01-15T11:56:17.506Z,100979
2018-01-15T11:58:45.586Z,100986
2018-01-15T12:01:13.655Z,100963
2018-01-15T12:03:41.731Z,100962
2018-01-15T12:06:09.792Z,100949
2018-01-15T12:08:38.142Z,100972
2018-01-15T12:11:06.254Z,100952
2018-01-15T12:13:34.320Z,100954
2018-01-15T12:16:02.377Z,100952
2018-01-15T12:18:30.449Z,100933
2018-01-15T12:20:58.513Z,100937
2018-01-15T12:23:26.587Z,100921
2018-01-15T12:25:54.655Z,100904
2018-01-15T12:28:22.726Z,100897
2018-01-15T12:30:50.801Z,100895
2018-01-15T12:33:18.867Z,100890
2018-01-15T12:35:46.927Z,100882
2018-01-15T12:38:15.019Z,100877
2018-01-15T12:40:43.082Z,100869
2018-01-15T12:43:11.156Z,100872
2018-01-15T12:45:39.230Z,100858
2018-01-15T12:48:07.310Z,100857
2018-01-15T12:50:35.457Z,100850
2018-01-15T12:53:03.530Z,100845
2018-01-15T12:55:31.591Z,100853
2018-01-15T12:57:59.664Z,100847
2018-01-15T13:00:27.732Z,100825
2018-01-15T13:02:55.806Z,100821
2018-01-15T13:11:41.714Z,100810
2018-01-15T13:14:09.788Z,100806
2018-01-15T13:16:37.866Z,100812
2018-01-15T13:19:05.937Z,100778
2018-01-15T13:21:34.050Z,100766
2018-01-15T13:24:02.127Z,100754
2018-01-15T13:26:30.211Z,100758
2018-01-15T13:28:59.130Z,100747
2018-01-15T13:31:27.198Z,100769
2018-01-15T13:33:55.282Z,100773
2018-01-15T13:36:23.431Z,100773
2018-01-15T13:38:51.500Z,100767
2018-01-15T13:41:19.562Z,100775
2018-01-15T13:43:48.394Z,100763
2018-01-15T13:46:16.489Z,100767
2018-01-15T13:48:44.564Z,100759
2018-01-15T13:51:12.642Z,100758
2018-01-15T13:53:40.751Z,100744
2018-01-15T13:56:08.819Z,100744
2018-01-15T13:58:37.279Z,100735
2018-01-15T14:01:06.273Z,100734
2018-01-15T14:03:34.354Z,100730
2018-01-15T14:06:02.526Z,100723
2018-01-15T14:08:30.688Z,100714
2018-01-15T14:10:59.200Z,100710
2018-01-15T14:13:27.297Z,100714
2018-01-15T14:15:55.676Z,100705
2018-01-15T14:18:23.822Z,100699
2018-01-15T14:20:52.316Z,100695
2018-01-15T14:23:20.576Z,100685
2018-01-15T14:25:49.383Z,100688
2018-01-15T14:28:20.486Z,100677
2018-01-15T14:30:48.916Z,100679
2018-01-15T14:33:16.994Z,100668
2018-01-15T14:35:45.063Z,100683
2018-01-15T14:38:13.350Z,100658
2018-01-15T14:40:41.423Z,100644
2018-01-15T14:43:09.578Z,100643
2018-01-15T14:45:37.641Z,100630
2018-01-15T14:48:05.703Z,100635
2018-01-15T14:50:33.780Z,100623
2018-01-15T14:53:01.846Z,100619
2018-01-15T14:55:29.924Z,100603
2018-01-15T14:57:57.990Z,100599
2018-01-15T15:00:26.068Z,100587
2018-01-15T15:02:54.133Z,100581
2018-01-15T15:05:23.222Z,100575
2018-01-15T15:07:51.286Z,100577
2018-01-15T15:10:19.361Z,100559
2018-01-15T15:12:47.435Z,100567
2018-01-15T15:15:15.512Z,100572
2018-01-15T15:17:43.578Z,100553
2018-01-15T15:20:11.642Z,100556
2018-01-15T15:22:39.703Z,100548
2018-01-15T15:25:07.770Z,100535
2018-01-15T15:27:35.838Z,100533
2018-01-15T15:30:03.903Z,100510
2018-01-15T15:32:31.982Z,100511
2018-01-15T15:35:00.036Z,100496
2018-01-15T15:37:28.102Z,100494
2018-01-15T15:39:56.303Z,100483
2018-01-15T15:42:24.470Z,100481
2018-01-15T15:44:52.533Z,100482
2018-01-15T15:47:20.607Z,100472
2018-01-15T15:49:48.665Z,100460
2018-01-15T15:52:16.730Z,100462
2018-01-15T15:54:44.798Z,100454
2018-01-15T15:57:12.866Z,100451
2018-01-15T15:59:40.939Z,100440
2018-01-15T16:02:09.767Z,100439
2018-01-15T16:04:37.825Z,100429
2018-01-15T16:07:05.903Z,100433
2018-01-15T16:09:33.970Z,100423
2018-01-15T16:12:02.034Z,100407
2018-01-15T16:14:30.098Z,100411
2018-01-15T16:16:58.175Z,100398
2018-01-15T16:19:26.245Z,100384
2018-01-15T16:25:01.478Z,100384
2018-01-15T16:27:29.555Z,100372
2018-01-15T16:29:57.631Z,100357
2018-01-15T16:32:25.698Z,100363
2018-01-15T16:34:53.766Z,100347
2018-01-15T16:37:21.839Z,100346
2018-01-15T16:39:49.902Z,100349
2018-01-15T16:42:17.966Z,100339
2018-01-15T16:44:46.805Z,100337
2018-01-15T16:47:14.886Z,100349
2018-01-15T16:49:43.057Z,100331
2018-01-15T16:52:11.142Z,100340
2018-01-15T16:54:39.204Z,100335
2018-01-15T16:57:07.310Z,100325
2018-01-15T16:59:35.424Z,100314
2018-01-15T17:02:03.456Z,100304
2018-01-15T17:04:31.549Z,100303
2018-01-15T17:06:59.615Z,100297
2018-01-15T17:09:28.733Z,100303
2018-01-15T17:11:56.798Z,100291
2018-01-15T17:14:24.897Z,100285
2018-01-15T17:16:52.969Z,100277
2018-01-15T17:19:21.035Z,100276
2018-01-15T17:21:49.200Z,100271
2018-01-15T17:24:17.390Z,100262
2018-01-15T17:26:45.474Z,100248
2018-01-15T17:29:15.223Z,100254
2018-01-15T17:31:43.303Z,100231
2018-01-15T17:34:11.361Z,100232
2018-01-15T17:36:39.438Z,100244
2018-01-15T17:39:07.502Z,100238
2018-01-15T17:41:35.574Z,100229
2018-01-15T17:44:04.409Z,100216
2018-01-15T17:46:32.485Z,100213
2018-01-15T17:49:00.551Z,100214
2018-01-15T17:51:28.652Z,100203
2018-01-15T17:53:56.721Z,100197
2018-01-15T17:56:24.806Z,100206
2018-01-15T17:58:52.870Z,100174
2018-01-15T18:01:27.508Z,100190
2018-01-15T18:03:57.513Z,100182
2018-01-15T18:06:26.056Z,100168
2018-01-15T18:08:54.118Z,100160
2018-01-15T18:11:22.182Z,100152
2018-01-15T18:13:52.211Z,100155
2018-01-15T18:16:20.269Z,100176
2018-01-15T18:18:48.342Z,100149
2018-01-15T18:21:16.440Z,100143
2018-01-15T18:23:46.700Z,100143
2018-01-15T18:26:15.419Z,100146
2018-01-15T18:28:43.515Z,100138
2018-01-15T18:31:12.350Z,100136
2018-01-15T18:33:40.426Z,100146
2018-01-15T18:36:08.502Z,100136
2018-01-15T18:38:36.579Z,100135
2018-01-15T18:41:04.649Z,100132
2018-01-15T18:43:32.730Z,100115
2018-01-15T18:46:00.822Z,100119
2018-01-15T18:48:28.883Z,100114
2018-01-15T18:50:57.179Z,100094
2018-01-15T18:53:26.019Z,100100
2018-01-15T18:55:54.110Z,100104
2018-01-15T18:58:22.171Z,100083
2018-01-15T19:00:50.255Z,100083
2018-01-15T19:03:18.327Z,100074
2018-01-15T19:05:46.404Z,100077
2018-01-15T19:08:14.479Z,100074
2018-01-15T19:10:42.547Z,100074
2018-01-15T19:13:10.619Z,100069
2018-01-15T19:15:38.691Z,100058
2018-01-15T19:18:06.772Z,100048
2018-01-15T19:20:35.602Z,100052
2018-01-15T19:23:04.601Z,100035
2018-01-15T19:25:32.674Z,100035
2018-01-15T19:28:00.751Z,100021
2018-01-15T19:30:28.831Z,100018
2018-01-15T19:32:56.898Z,100011
2018-01-15T19:38:30.024Z,99985
2018-01-15T19:40:58.081Z,99985
2018-01-15T19:43:29.086Z,99964
2018-01-15T19:46:02.787Z,99944
2018-01-15T19:48:36.347Z,99953
2018-01-15T19:51:10.022Z,99928
2018-01-15T19:53:43.698Z,99921
2018-01-15T19:56:17.379Z,99912
2018-01-15T19:58:50.974Z,99896
2018-01-15T20:01:24.565Z,99887
2018-01-15T20:03:59.111Z,99890
2018-01-15T20:09:38.130Z,99859
2018-01-15T20:12:07.153Z,99868
2018-01-15T20:14:35.259Z,99851
2018-01-15T20:17:03.313Z,99852
2018-01-15T20:19:31.386Z,99837
2018-01-15T20:21:59.455Z,99828
2018-01-15T20:24:27.526Z,99807
2018-01-15T20:26:55.586Z,99821
2018-01-15T20:29:23.654Z,99799
2018-01-15T20:31:51.732Z,99780
2018-01-15T20:34:19.795Z,99804
2018-01-15T20:36:47.858Z,99791
2018-01-15T20:39:15.945Z,99792
2018-01-15T20:41:44.010Z,99769
2018-01-15T20:44:12.075Z,99763
2018-01-15T20:46:40.142Z,99754
2018-01-15T20:49:08.206Z,99747
2018-01-15T20:51:36.280Z,99747
2018-01-15T20:54:04.336Z,99758
2018-01-15T20:56:32.407Z,99745
2018-01-15T20:59:00.474Z,99741
2018-01-15T21:01:28.552Z,99728
2018-01-15T21:03:56.631Z,99727
2018-01-15T21:06:24.686Z,99711
2018-01-15T21:08:52.764Z,99704
2018-01-15T21:11:20.835Z,99698
2018-01-15T21:13:48.893Z,99695
2018-01-15T21:16:16.972Z,99661
2018-01-15T21:18:45.028Z,99661
2018-01-15T21:21:13.859Z,99662
2018-01-15T21:23:41.935Z,99658
2018-01-15T21:26:10.022Z,99655
2018-01-15T21:28:38.082Z,99646
2018-01-15T21:31:06.148Z,99608
2018-01-15T21:33:34.217Z,99623
2018-01-15T21:36:02.284Z,99615
2018-01-15T21:38:30.352Z,99613
2018-01-15T21:40:58.410Z,99593
2018-01-15T21:43:26.480Z,99577
2018-01-15T21:45:54.544Z,99570
2018-01-15T21:48:22.619Z,99557
2018-01-15T21:50:50.677Z,99557
2018-01-15T21:53:18.747Z,99543
2018-01-15T21:55:47.011Z,99548
2018-01-15T21:58:15.896Z,99552
2018-01-15T22:00:44.723Z,99535
2018-01-15T22:03:12.787Z,99535
2018-01-15T22:05:40.847Z,99538
2018-01-15T22:08:08.913Z,99550
2018-01-15T22:10:37.043Z,99540
2018-01-15T22:13:05.102Z,99523
2018-01-15T22:15:33.161Z,99516
2018-01-15T22:18:01.239Z,99523
2018-01-15T22:20:29.298Z,99493
2018-01-15T22:22:57.353Z,99540
2018-01-15T22:25:25.430Z,99506
2018-01-15T22:27:53.495Z,99518
2018-01-15T22:30:21.562Z,99532
2018-01-15T22:32:49.618Z,99488
2018-01-15T22:35:17.695Z,99497
2018-01-15T22:37:45.759Z,99481
2018-01-15T22:40:13.840Z,99486
2018-01-15T22:42:41.895Z,99462
2018-01-15T22:45:10.017Z,99455
2018-01-15T22:47:38.074Z,99461
2018-01-15T22:50:06.145Z,99426
2018-01-15T22:52:34.685Z,99428
2018-01-15T22:55:02.764Z,99416
2018-01-15T22:57:30.823Z,99425
2018-01-15T22:59:58.890Z,99403
2018-01-15T23:02:27.726Z,99393
2018-01-15T23:04:55.788Z,99390
2018-01-15T23:07:23.861Z,99379
2018-01-15T23:09:51.926Z,99383
2018-01-15T23:12:19.996Z,99393
2018-01-15T23:14:48.052Z,99382
2018-01-15T23:17:16.124Z,99363
2018-01-15T23:19:44.238Z,99354
2018-01-15T23:22:12.251Z,99349
2018-01-15T23:24:40.305Z,99343
2018-01-15T23:27:09.143Z,99343
2018-01-15T23:29:37.201Z,99357
2018-01-15T23:32:05.272Z,99322
2018-01-15T23:34:33.326Z,99309
2018-01-15T23:37:01.385Z,99312
2018-01-15T23:39:29.447Z,99322
2018-01-15T23:41:58.282Z,99305
2018-01-15T23:44:26.342Z,99300
2018-01-15T23:46:54.415Z,99268
2018-01-15T23:49:22.483Z,99263
2018-01-15T23:51:50.546Z,99270
2018-01-15T23:54:33.517Z,99250
2018-01-15T23:57:01.582Z,99254
2018-01-15T23:59:29.647Z,99234
